ADDS METAR Data INFO
IDs: Format: Raw Decoded Include TAF

Data at: 0258 UTC 21 Oct 2017

KBDR 210252Z AUTO 29003KT 10SM CLR 14/05 A3019 RMK AO2 SLP223 T01390050 53016 $
KBDR 210152Z 27007KT 10SM CLR 14/05 A3017 RMK AO2 SLP216 T01390050
KBDR 210052Z 31003KT 10SM CLR 14/05 A3015 RMK AO2 SLP208 T01440050
KBDR 202352Z 25003KT 10SM CLR 19/02 A3014 RMK AO2 SLP207 T01890022 10233 20172 53022
KBDR 202252Z 35004KT 10SM CLR 19/02 A3012 RMK AO2 SLP200 T01940017
KBDR 202152Z 33007KT 10SM CLR 21/01 A3010 RMK AO2 SLP192 T02110011
KBDR 202052Z 32012G17KT 10SM CLR 23/01 A3008 RMK AO2 SLP185 T02280011 53003
KBDR 201952Z 31012KT 10SM CLR 23/01 A3007 RMK AO2 SLP183 T02330006
KBDR 201852Z 29011KT 10SM CLR 23/00 A3006 RMK AO2 SLP179 T02280000
KBDR 201752Z 31013KT 10SM CLR 22/M01 A3007 RMK AO2 SLP182 T02221011 10222 20128 58022
KBDR 201652Z 32005G14KT 10SM CLR 21/01 A3011 RMK AO2 SLP194 T02110006
KBDR 201552Z 31010KT 10SM CLR 20/01 A3012 RMK AO2 SLP200 T02000011
KBDR 201452Z 30006KT 10SM CLR 19/02 A3013 RMK AO2 SLP204 T01890022 50006
KBDR 201352Z 31010KT 10SM CLR 18/06 A3015 RMK AO2 SLP208 T01780056
KBDR 201252Z 31008KT 10SM CLR 16/08 A3013 RMK AO2 SLP202 T01610078
KBDR 201152Z 31006KT 10SM CLR 13/08 A3012 RMK AO2 SLP198 T01280083 10156 20106 53019
KBDR 201052Z 31006KT 10SM CLR 12/08 A3009 RMK AO2 SLP189 T01170078
KBDR 200952Z AUTO 30005KT 10SM CLR 12/08 A3008 RMK AO2 SLP186 T01170078
KBDR 200852Z AUTO 30003KT 10SM CLR 13/08 A3006 RMK AO2 SLP179 T01280078 53002
KBDR 200752Z AUTO 27006KT 10SM CLR 15/08 A3004 RMK AO2 SLP172 T01500083
KBDR 200652Z AUTO 28003KT 10SM CLR 13/08 A3005 RMK AO2 SLP174 T01330083
KBDR 200552Z AUTO 27006KT 10SM CLR 16/08 A3005 RMK AO2 SLP177 T01560083 10183 20156 55004
KBDR 200452Z AUTO 26007KT 10SM CLR 17/09 A3005 RMK AO2 SLP176 T01720094 402170089
KBDR 200352Z AUTO 25008KT 10SM CLR 17/09 A3005 RMK AO2 SLP177 T01720094
KBDR 200252Z AUTO 26006KT 10SM CLR 17/12 A3007 RMK AO2 SLP181 T01720117 55000
KBDR 200152Z 23011KT 10SM CLR 18/12 A3007 RMK AO2 SLP181 T01830117
KBDR 200052Z 22013KT 10SM CLR 18/13 A3006 RMK AO2 SLP179 T01830133
KBDR 192352Z 21015KT 10SM CLR 18/13 A3006 RMK AO2 SLP180 T01780128 10217 20178 56005
KBDR 192252Z 20013KT 10SM CLR 18/12 A3007 RMK AO2 SLP182 T01780117
KBDR 192152Z 20012KT 10SM CLR 19/11 A3007 RMK AO2 SLP182 T01890106
KBDR 192052Z 20014KT 10SM CLR 20/11 A3008 RMK AO2 SLP185 T02000106 56025
KBDR 191952Z 21013KT 10SM CLR 22/07 A3010 RMK AO2 SLP193 T02170072
KBDR 191852Z 22012KT 10SM CLR 22/07 A3012 RMK AO2 SLP198 T02170067
KBDR 191752Z 23011KT 10SM CLR 21/09 A3015 RMK AO2 SLP210 T02110089 10211 20111 58027
KBDR 191652Z 24010KT 10SM CLR 21/09 A3018 RMK AO2 SLP221 T02060089
KBDR 191552Z 22012KT 10SM CLR 19/09 A3022 RMK AO2 SLP232 T01940089